Time;durP1;ratioP1;P1;durP2;ratioP2;P2;SDS_P1;SDS_P2;PMS_P1;PMS_P2;Temp;Humidity;BMP_temperature;BMP_pressure;BME280_temperature;BME280_humidity;BME280_pressure;Samples;Min_cycle;Max_cycle;Signal;HPM_P1;HPM_P2
2022/01/30 00:01:42;;;;;;;;;;;;;;;3.60;100.00;97445.84;4985973;28;19969;-74
2022/01/30 00:04:08;;;;;;;;;;;;;;;3.62;100.00;97446.53;4986400;28;19978;-74
2022/01/30 00:06:34;;;;;;;;;;;;;;;3.63;100.00;97448.16;4991827;28;19954;-73
2022/01/30 00:09:00;;;;;;;;;;;;;;;3.63;100.00;97440.38;4982772;28;19984;-73
2022/01/30 00:11:32;;;;;;;;;;;;;;;3.60;100.00;97440.66;4981213;28;19951;-75
2022/01/30 00:13:59;;;;;;;;;;;;;;;3.61;100.00;97433.69;4967026;28;20434;-74
2022/01/30 00:16:30;;;;;;;;;;;;;;;3.62;100.00;97443.94;4983822;28;20316;-74
2022/01/30 00:19:07;;;;;;;;;;;;;;;3.64;100.00;97439.41;4991847;28;19956;-74
2022/01/30 00:21:38;;;;;;;;;;;;;;;3.68;100.00;97441.72;4986106;28;19976;-74
2022/01/30 00:24:09;;;;;;;;;;;;;;;3.68;100.00;97436.53;4983366;28;19978;-73
2022/01/30 00:26:37;;;;;;;;;;;;;;;3.69;100.00;97428.59;4987524;28;19954;-74
2022/01/30 00:29:04;;;;;;;;;;;;;;;3.69;100.00;97431.19;4986444;28;19964;-74
2022/01/30 00:31:31;;;;;;;;;;;;;;;3.71;100.00;97433.63;4987550;28;19965;-74
2022/01/30 00:33:57;;;;;;;;;;;;;;;3.69;100.00;97423.41;4986996;28;19957;-74
2022/01/30 00:36:23;;;;;;;;;;;;;;;3.70;100.00;97426.81;4984850;28;20326;-74
2022/01/30 00:38:49;;;;;;;;;;;;;;;3.70;99.83;97435.41;4984759;28;20141;-74
2022/01/30 00:41:15;;;;;;;;;;;;;;;3.73;99.28;97435.09;4990519;28;19964;-73
2022/01/30 00:43:41;;;;;;;;;;;;;;;3.77;99.52;97428.66;4984203;28;19987;-74
2022/01/30 00:46:07;;;;;;;;;;;;;;;3.80;98.87;97423.19;4984514;28;19954;-74
2022/01/30 00:48:32;;;;;;;;;;;;;;;3.82;99.48;97423.84;4983727;28;19995;-74
2022/01/30 00:50:58;;;;;;;;;;;;;;;3.83;99.55;97411.66;4983539;28;19952;-73
2022/01/30 00:53:25;;;;;;;;;;;;;;;3.82;100.00;97413.47;4987420;28;19989;-74
2022/01/30 00:55:51;;;;;;;;;;;;;;;3.83;100.00;97427.25;4989858;28;19957;-74
2022/01/30 00:58:17;;;;;;;;;;;;;;;3.82;99.29;97425.59;4985107;28;20043;-74
2022/01/30 01:00:42;;;;;;;;;;;;;;;3.83;99.41;97416.88;4982238;28;20354;-74
2022/01/30 01:03:08;;;;;;;;;;;;;;;3.83;100.00;97419.44;4988252;28;20003;-74
2022/01/30 01:05:35;;;;;;;;;;;;;;;3.83;99.90;97422.06;4990554;28;19966;-73
2022/01/30 01:08:10;;;;;;;;;;;;;;;3.82;100.00;97429.03;4973530;28;19958;-74
2022/01/30 01:10:42;;;;;;;;;;;;;;;3.82;99.27;97429.03;4982135;28;19964;-74
2022/01/30 01:23:53;;;;;;;;;;;;;;;3.84;100.00;97428.84;4984848;28;19990;-74
2022/01/30 01:26:20;;;;;;;;;;;;;;;3.84;100.00;97431.44;4981430;28;19959;-74
2022/01/30 01:28:46;;;;;;;;;;;;;;;3.84;100.00;97427.09;4984873;28;20424;-74
2022/01/30 01:31:12;;;;;;;;;;;;;;;3.87;99.20;97425.97;4985290;28;19965;-74
2022/01/30 01:33:53;;;;;;;;;;;;;;;3.88;99.24;97427.59;4984073;28;19947;-74
2022/01/30 01:36:20;;;;;;;;;;;;;;;3.90;99.21;97430.03;4986584;28;20007;-74
2022/01/30 01:38:46;;;;;;;;;;;;;;;3.93;98.71;97424.56;4985198;28;19954;-74
2022/01/30 01:41:14;;;;;;;;;;;;;;;3.95;99.38;97430.38;4981810;28;19965;-74
2022/01/30 01:43:40;;;;;;;;;;;;;;;3.97;99.54;97428.47;4984482;28;19964;-74
2022/01/30 01:46:14;;;;;;;;;;;;;;;3.99;98.45;97429.13;4987011;28;20128;-74
2022/01/30 01:48:42;;;;;;;;;;;;;;;4.01;98.63;97414.22;4985279;28;19957;-73
2022/01/30 01:51:15;;;;;;;;;;;;;;;4.03;98.52;97413.13;4984551;28;20058;-74
2022/01/30 01:53:41;;;;;;;;;;;;;;;4.05;98.39;97415.53;4983877;28;19991;-74
2022/01/30 01:56:07;;;;;;;;;;;;;;;4.05;98.08;97412.94;4983392;28;19959;-74
2022/01/30 01:58:33;;;;;;;;;;;;;;;4.06;98.87;97410.19;4985970;28;19965;-73
2022/01/30 02:01:01;;;;;;;;;;;;;;;4.05;98.57;97412.94;4983374;28;20433;-73
2022/01/30 02:03:27;;;;;;;;;;;;;;;4.06;98.70;97414.59;4984764;28;19964;-75
2022/01/30 02:05:57;;;;;;;;;;;;;;;4.06;97.70;97414.59;4975526;28;20090;-74
2022/01/30 02:08:35;;;;;;;;;;;;;;;4.07;98.10;97417.03;4983287;28;19957;-74
2022/01/30 02:11:09;;;;;;;;;;;;;;;4.07;98.45;97418.78;4984445;28;19953;-74
2022/01/30 02:24:21;;;;;;;;;;;;;;;4.03;99.16;97407.09;4991035;28;19978;-74
2022/01/30 02:26:48;;;;;;;;;;;;;;;4.05;98.92;97410.34;4986892;28;19960;-74
2022/01/30 02:29:13;;;;;;;;;;;;;;;4.07;98.93;97400.63;4987211;28;19972;-74
2022/01/30 02:31:41;;;;;;;;;;;;;;;4.09;98.96;97410.88;4992212;28;19987;-74
2022/01/30 02:34:07;;;;;;;;;;;;;;;4.09;99.56;97408.25;4986088;28;19960;-74
2022/01/30 02:36:44;;;;;;;;;;;;;;;4.06;99.84;97407.59;4988189;28;19960;-73
2022/01/30 02:39:10;;;;;;;;;;;;;;;4.04;99.30;97393.16;4987322;28;19960;-74
2022/01/30 02:41:38;;;;;;;;;;;;;;;4.03;99.98;97396.69;4987581;28;19960;-74
2022/01/30 02:44:11;;;;;;;;;;;;;;;4.03;100.00;97394.94;4987405;28;19969;-74
2022/01/30 02:46:42;;;;;;;;;;;;;;;4.02;99.94;97388.09;4986886;28;19955;-74
2022/01/30 02:51:57;;;;;;;;;;;;;;;4.03;99.96;97387.16;4987614;28;19953;-74
2022/01/30 02:54:23;;;;;;;;;;;;;;;4.04;99.85;97380.97;4987312;28;19976;-74
2022/01/30 02:56:49;;;;;;;;;;;;;;;4.06;99.49;97389.44;4983727;28;19958;-74
2022/01/30 02:59:15;;;;;;;;;;;;;;;4.06;99.49;97383.44;4983434;28;19961;-73
2022/01/30 03:01:42;;;;;;;;;;;;;;;4.06;99.70;97379.06;4992119;28;19963;-74
2022/01/30 03:04:08;;;;;;;;;;;;;;;4.06;99.84;97379.06;4986617;28;19974;-74
2022/01/30 03:06:35;;;;;;;;;;;;;;;4.05;99.72;97377.44;4983992;28;19961;-74
2022/01/30 03:09:01;;;;;;;;;;;;;;;4.04;99.92;97375.78;4990157;28;19960;-74
2022/01/30 03:11:27;;;;;;;;;;;;;;;4.07;99.83;97377.25;4989783;28;19953;-74
2022/01/30 03:13:53;;;;;;;;;;;;;;;4.09;99.93;97377.94;4987765;28;19996;-73
2022/01/30 03:16:21;;;;;;;;;;;;;;;4.09;99.61;97382.31;4984422;28;20004;-74
2022/01/30 03:18:47;;;;;;;;;;;;;;;4.08;100.00;97378.91;4986772;28;19963;-74
2022/01/30 03:21:12;;;;;;;;;;;;;;;4.11;99.56;97390.75;4985340;28;19961;-74
2022/01/30 03:23:39;;;;;;;;;;;;;;;4.11;100.00;97394.16;4984082;28;20455;-74
2022/01/30 03:26:06;;;;;;;;;;;;;;;4.12;99.43;97395.81;4982202;28;19959;-74
2022/01/30 03:28:32;;;;;;;;;;;;;;;4.13;99.26;97394.81;4991849;28;19959;-74
2022/01/30 03:31:02;;;;;;;;;;;;;;;4.17;98.85;97403.94;4988485;28;19950;-74
2022/01/30 03:33:28;;;;;;;;;;;;;;;4.18;98.61;97405.56;4987059;28;20394;-74
2022/01/30 03:35:54;;;;;;;;;;;;;;;4.22;98.45;97412.09;4985124;28;19960;-74
2022/01/30 03:38:21;;;;;;;;;;;;;;;4.22;98.79;97411.25;4988083;28;20425;-74
2022/01/30 03:40:47;;;;;;;;;;;;;;;4.20;99.07;97421.81;4986632;28;20030;-75
2022/01/30 03:43:13;;;;;;;;;;;;;;;4.20;98.64;97423.56;4972080;28;19972;-74
2022/01/30 03:45:40;;;;;;;;;;;;;;;4.21;98.70;97414.84;4980905;28;19965;-74
2022/01/30 03:48:05;;;;;;;;;;;;;;;4.24;98.60;97422.31;4990353;28;19959;-74
2022/01/30 03:50:32;;;;;;;;;;;;;;;4.24;98.51;97430.09;4985687;28;19992;-74
2022/01/30 03:52:57;;;;;;;;;;;;;;;4.24;98.49;97428.34;4992318;28;19960;-74
2022/01/30 03:55:23;;;;;;;;;;;;;;;4.24;98.46;97432.69;4981471;28;19986;-73
2022/01/30 03:57:50;;;;;;;;;;;;;;;4.25;98.25;97435.13;4986284;28;19957;-73
2022/01/30 04:00:16;;;;;;;;;;;;;;;4.26;98.22;97446.34;4986953;28;19957;-74
2022/01/30 04:02:42;;;;;;;;;;;;;;;4.27;98.28;97456.56;4981352;28;20407;-74
2022/01/30 04:05:08;;;;;;;;;;;;;;;4.26;98.51;97447.16;4985276;28;19966;-74
2022/01/30 04:07:35;;;;;;;;;;;;;;;4.26;98.84;97447.16;4986389;28;20392;-74
2022/01/30 04:10:02;;;;;;;;;;;;;;;4.25;98.77;97458.50;4986284;28;19953;-74
2022/01/30 04:12:28;;;;;;;;;;;;;;;4.27;98.71;97450.56;4986679;28;19954;-74
2022/01/30 04:14:54;;;;;;;;;;;;;;;4.28;99.43;97447.00;4979967;28;19956;-74
2022/01/30 04:17:20;;;;;;;;;;;;;;;4.26;99.03;97446.34;4986374;28;20005;-75
2022/01/30 04:19:46;;;;;;;;;;;;;;;4.24;98.72;97443.91;4989359;28;19958;-74
2022/01/30 04:22:12;;;;;;;;;;;;;;;4.25;98.57;97440.34;4990701;28;20300;-74
2022/01/30 04:24:38;;;;;;;;;;;;;;;4.25;98.66;97448.13;4983783;28;19976;-74
2022/01/30 04:27:04;;;;;;;;;;;;;;;4.27;98.85;97458.38;4985324;28;20010;-74
2022/01/30 04:29:30;;;;;;;;;;;;;;;4.29;98.83;97456.44;4986955;28;19965;-74
2022/01/30 04:31:56;;;;;;;;;;;;;;;4.27;99.60;97463.56;4982854;28;19964;-74
2022/01/30 04:34:23;;;;;;;;;;;;;;;4.25;99.27;97455.09;4992631;28;19954;-74
2022/01/30 04:37:03;;;;;;;;;;;;;;;4.24;99.40;97462.09;4979673;28;19961;-74
2022/01/30 04:57:43;;;;;;;;;;;;;;;4.28;99.11;97459.97;4984409;28;19960;-74
2022/01/30 05:06:42;;;;;;;;;;;;;;;4.26;99.36;97457.56;4969815;28;20334;-74
2022/01/30 05:08:24;;;;;;;;;;;;;;;4.27;99.13;97468.75;4971986;28;20456;-75
2022/01/30 05:10:52;;;;;;;;;;;;;;;4.27;98.87;97458.38;4984429;28;20337;-77
2022/01/30 05:13:21;;;;;;;;;;;;;;;4.28;98.59;97459.97;4973186;28;19968;-74
2022/01/30 05:15:48;;;;;;;;;;;;;;;4.29;98.19;97460.81;4978038;28;19960;-75
2022/01/30 05:18:21;;;;;;;;;;;;;;;4.27;98.61;97460.97;4989689;28;19950;-74
2022/01/30 05:20:47;;;;;;;;;;;;;;;4.24;98.58;97451.69;4989155;28;19962;-74
2022/01/30 05:23:14;;;;;;;;;;;;;;;4.24;98.61;97456.91;4980842;28;19951;-74
2022/01/30 05:25:40;;;;;;;;;;;;;;;4.21;99.46;97467.56;4985152;28;19964;-73
2022/01/30 05:28:06;;;;;;;;;;;;;;;4.18;99.17;97467.03;4986176;28;19955;-74
2022/01/30 05:30:34;;;;;;;;;;;;;;;4.17;98.95;97455.84;4986415;28;19967;-74
2022/01/30 05:33:00;;;;;;;;;;;;;;;4.15;99.12;97465.56;4983716;28;19952;-74
2022/01/30 05:35:26;;;;;;;;;;;;;;;4.13;99.14;97474.50;4984830;28;19952;-73
2022/01/30 05:37:54;;;;;;;;;;;;;;;4.14;99.17;97473.53;4979659;28;20412;-74
2022/01/30 05:40:20;;;;;;;;;;;;;;;4.13;99.48;97483.09;4984001;28;19962;-74
2022/01/30 05:42:46;;;;;;;;;;;;;;;4.15;99.24;97488.13;4986138;28;19951;-73
2022/01/30 05:47:57;;;;;;;;;;;;;;;4.17;99.14;97479.22;4989301;28;19960;-74
2022/01/30 05:50:23;;;;;;;;;;;;;;;4.16;99.48;97479.38;4981847;28;19955;-74
2022/01/30 05:52:49;;;;;;;;;;;;;;;4.16;99.22;97489.75;4981420;28;19958;-74
2022/01/30 05:55:14;;;;;;;;;;;;;;;4.14;98.85;97486.53;4984946;28;19983;-74
2022/01/30 05:57:40;;;;;;;;;;;;;;;4.11;97.84;97487.63;4986912;28;19967;-74
2022/01/30 06:00:07;;;;;;;;;;;;;;;4.08;97.18;97490.53;4985444;28;20048;-74
2022/01/30 06:02:33;;;;;;;;;;;;;;;4.05;96.75;97490.81;4979297;28;20420;-75
2022/01/30 06:04:59;;;;;;;;;;;;;;;4.02;94.83;97509.28;4988536;28;19970;-74
2022/01/30 06:07:31;;;;;;;;;;;;;;;4.00;94.58;97506.03;4984931;28;19956;-73
2022/01/30 06:09:57;;;;;;;;;;;;;;;3.99;94.53;97509.56;4985197;28;19959;-74
2022/01/30 06:12:23;;;;;;;;;;;;;;;3.95;94.62;97518.63;4983107;28;20422;-74
2022/01/30 06:14:49;;;;;;;;;;;;;;;3.94;93.44;97527.38;4985808;28;19960;-74
2022/01/30 06:17:14;;;;;;;;;;;;;;;3.89;94.11;97530.44;4985837;28;19947;-74
2022/01/30 06:19:40;;;;;;;;;;;;;;;3.86;92.38;97546.28;4981652;28;19961;-73
2022/01/30 06:22:06;;;;;;;;;;;;;;;3.84;93.13;97543.03;4980662;28;19960;-75
2022/01/30 06:24:32;;;;;;;;;;;;;;;3.82;92.47;97550.16;4990863;28;20385;-73
2022/01/30 06:26:58;;;;;;;;;;;;;;;3.81;93.28;97551.13;4983695;28;19960;-74
2022/01/30 06:29:24;;;;;;;;;;;;;;;3.80;93.42;97554.66;4981031;28;19950;-73
2022/01/30 06:31:50;;;;;;;;;;;;;;;3.82;93.93;97557.94;4978331;28;19965;-73
2022/01/30 06:34:16;;;;;;;;;;;;;;;3.78;94.43;97560.03;4988938;28;19946;-73
2022/01/30 06:36:42;;;;;;;;;;;;;;;3.78;94.65;97564.38;4986229;28;20045;-73
2022/01/30 06:39:08;;;;;;;;;;;;;;;3.78;94.72;97566.97;4984987;28;19985;-74
2022/01/30 06:41:34;;;;;;;;;;;;;;;3.80;94.90;97565.03;4982163;28;19955;-74
2022/01/30 06:44:00;;;;;;;;;;;;;;;3.80;94.98;97557.25;4981133;28;19971;-74
2022/01/30 06:46:26;;;;;;;;;;;;;;;3.81;95.23;97557.13;4988032;28;19956;-74
2022/01/30 06:48:51;;;;;;;;;;;;;;;3.82;95.30;97561.34;4969630;28;19989;-74
2022/01/30 06:51:17;;;;;;;;;;;;;;;3.83;95.16;97554.38;4980563;28;20024;-74
2022/01/30 06:53:43;;;;;;;;;;;;;;;3.84;95.24;97556.84;4984604;28;20015;-74
2022/01/30 06:56:09;;;;;;;;;;;;;;;3.85;95.14;97565.44;4984651;28;20011;-74
2022/01/30 06:58:35;;;;;;;;;;;;;;;3.83;94.88;97565.56;4983519;28;19959;-74
2022/01/30 07:01:01;;;;;;;;;;;;;;;3.83;93.45;97577.75;4988218;28;19969;-74
2022/01/30 07:03:27;;;;;;;;;;;;;;;3.81;94.08;97572.69;4985737;28;19957;-73
2022/01/30 07:05:53;;;;;;;;;;;;;;;3.82;94.63;97568.31;4989672;28;20046;-74
2022/01/30 07:08:19;;;;;;;;;;;;;;;3.83;94.72;97565.56;4984681;28;19958;-74
2022/01/30 07:10:45;;;;;;;;;;;;;;;3.83;94.71;97572.53;4981875;28;20485;-76
2022/01/30 07:13:12;;;;;;;;;;;;;;;3.83;94.65;97586.34;4986297;28;19954;-74
2022/01/30 07:15:41;;;;;;;;;;;;;;;3.83;94.40;97588.13;4991470;28;19961;-73
2022/01/30 07:18:07;;;;;;;;;;;;;;;3.82;94.29;97583.88;4986167;28;19969;-73
2022/01/30 07:20:33;;;;;;;;;;;;;;;3.81;94.34;97593.44;4982373;28;19959;-74
2022/01/30 07:22:59;;;;;;;;;;;;;;;3.80;94.06;97599.63;4989926;28;19953;-74
2022/01/30 07:25:25;;;;;;;;;;;;;;;3.79;94.20;97597.16;4990377;28;19972;-73
2022/01/30 07:27:51;;;;;;;;;;;;;;;3.79;94.11;97605.75;4988357;28;19961;-73
2022/01/30 07:30:16;;;;;;;;;;;;;;;3.79;94.03;97603.16;4983578;28;19996;-74
2022/01/30 07:32:42;;;;;;;;;;;;;;;3.80;94.08;97601.38;4986865;28;19982;-74
2022/01/30 07:35:08;;;;;;;;;;;;;;;3.80;93.93;97607.41;4992696;28;20059;-73
2022/01/30 07:37:34;;;;;;;;;;;;;;;3.84;93.90;97607.91;4981165;28;19966;-74
2022/01/30 07:40:02;;;;;;;;;;;;;;;3.87;93.93;97612.81;4985216;28;19966;-73
2022/01/30 07:42:28;;;;;;;;;;;;;;;3.90;93.75;97614.28;4986538;28;19958;-74
2022/01/30 07:44:54;;;;;;;;;;;;;;;3.93;93.59;97612.22;4990314;28;20010;-74
2022/01/30 07:47:20;;;;;;;;;;;;;;;3.95;94.05;97627.63;4983280;28;19961;-74
2022/01/30 07:49:51;;;;;;;;;;;;;;;3.98;94.33;97624.75;4982796;28;20415;-74
2022/01/30 07:52:19;;;;;;;;;;;;;;;4.01;94.60;97629.66;4988435;28;19963;-74
2022/01/30 07:54:45;;;;;;;;;;;;;;;4.00;93.80;97633.22;4989518;28;19979;-73
2022/01/30 07:57:11;;;;;;;;;;;;;;;4.03;94.39;97633.75;4981140;28;20430;-74
2022/01/30 07:59:36;;;;;;;;;;;;;;;4.06;94.57;97630.03;4986861;28;19953;-74
2022/01/30 08:02:03;;;;;;;;;;;;;;;4.10;94.64;97635.75;4991120;28;19954;-74
2022/01/30 08:04:28;;;;;;;;;;;;;;;4.14;94.20;97632.72;4988182;28;19973;-76
2022/01/30 08:06:55;;;;;;;;;;;;;;;4.17;92.50;97626.41;4985423;28;19971;-73
2022/01/30 08:09:20;;;;;;;;;;;;;;;4.20;92.31;97632.13;4986762;28;19954;-74
2022/01/30 08:11:46;;;;;;;;;;;;;;;4.21;92.02;97635.53;4982528;28;19960;-73
2022/01/30 08:14:12;;;;;;;;;;;;;;;4.19;88.73;97637.47;4989480;28;20037;-74
2022/01/30 08:16:39;;;;;;;;;;;;;;;4.19;89.36;97647.84;4985440;28;19968;-73
2022/01/30 08:19:04;;;;;;;;;;;;;;;4.21;89.23;97645.91;4985234;28;19962;-74
2022/01/30 08:21:31;;;;;;;;;;;;;;;4.23;90.07;97652.59;4989761;28;20004;-74
2022/01/30 08:23:57;;;;;;;;;;;;;;;4.29;89.88;97643.41;4987080;28;19953;-74
2022/01/30 08:26:22;;;;;;;;;;;;;;;4.52;87.24;97642.94;4986426;28;19986;-74
2022/01/30 08:28:49;;;;;;;;;;;;;;;4.72;87.14;97640.97;4985723;28;20417;-73
2022/01/30 08:31:15;;;;;;;;;;;;;;;4.74;86.64;97654.63;4985141;28;19978;-74
2022/01/30 08:33:40;;;;;;;;;;;;;;;4.99;86.08;97645.22;4984503;28;20322;-73
2022/01/30 08:36:06;;;;;;;;;;;;;;;5.44;85.05;97658.00;4989525;28;19963;-74
2022/01/30 08:38:32;;;;;;;;;;;;;;;5.81;84.48;97646.44;4989490;28;19954;-74
2022/01/30 08:40:58;;;;;;;;;;;;;;;6.13;81.17;97644.91;4980144;28;19960;-74
2022/01/30 08:43:24;;;;;;;;;;;;;;;6.48;81.93;97646.44;4985931;28;20406;-74
2022/01/30 08:45:51;;;;;;;;;;;;;;;6.76;76.89;97638.31;4984751;28;19975;-73
2022/01/30 08:48:17;;;;;;;;;;;;;;;6.66;78.08;97653.28;4988854;28;19953;-74
2022/01/30 08:50:44;;;;;;;;;;;;;;;6.42;75.04;97628.84;4981746;28;19946;-74
2022/01/30 08:53:10;;;;;;;;;;;;;;;6.37;79.21;97645.94;4982855;28;19984;-74
2022/01/30 08:55:35;;;;;;;;;;;;;;;6.50;79.07;97638.47;4988997;28;20399;-73
2022/01/30 08:58:07;;;;;;;;;;;;;;;6.40;79.51;97629.97;4985292;28;20067;-74
2022/01/30 09:00:35;;;;;;;;;;;;;;;6.28;77.88;97626.91;4981241;28;19964;-74
2022/01/30 09:03:02;;;;;;;;;;;;;;;6.43;79.38;97632.28;4986363;28;19974;-74
2022/01/30 09:05:29;;;;;;;;;;;;;;;6.73;78.27;97624.78;4990993;28;19984;-76
2022/01/30 09:07:55;;;;;;;;;;;;;;;6.85;76.39;97632.09;4973906;28;20394;-74
2022/01/30 09:10:21;;;;;;;;;;;;;;;6.87;73.14;97614.50;4985283;28;19965;-74
2022/01/30 09:12:47;;;;;;;;;;;;;;;6.80;72.02;97604.88;4983428;28;19998;-74
2022/01/30 09:15:15;;;;;;;;;;;;;;;6.60;75.50;97622.66;4985747;28;20017;-75
2022/01/30 09:17:41;;;;;;;;;;;;;;;6.38;74.47;97619.72;4991045;28;19966;-74
2022/01/30 09:20:07;;;;;;;;;;;;;;;6.34;77.35;97641.88;4984702;28;20349;-73
2022/01/30 09:22:33;;;;;;;;;;;;;;;6.22;76.54;97630.13;4978213;28;19949;-75
2022/01/30 09:24:59;;;;;;;;;;;;;;;6.10;78.49;97640.03;4971542;28;19969;-74
2022/01/30 09:27:25;;;;;;;;;;;;;;;6.01;79.40;97644.41;4981096;28;20033;-74
2022/01/30 09:29:51;;;;;;;;;;;;;;;5.96;77.34;97643.25;4984646;28;20010;-74
2022/01/30 09:32:17;;;;;;;;;;;;;;;5.95;77.80;97637.25;4986192;28;20459;-74
2022/01/30 09:34:43;;;;;;;;;;;;;;;6.02;78.20;97642.63;4984252;28;19977;-74
2022/01/30 09:37:10;;;;;;;;;;;;;;;5.99;77.47;97641.16;4983251;28;19972;-74
2022/01/30 09:39:36;;;;;;;;;;;;;;;5.94;76.20;97627.75;4986838;28;20300;-74
2022/01/30 09:42:02;;;;;;;;;;;;;;;5.92;77.18;97647.94;4990283;28;20336;-74
2022/01/30 09:44:29;;;;;;;;;;;;;;;5.86;77.21;97648.59;4983842;28;19977;-76
2022/01/30 09:46:55;;;;;;;;;;;;;;;5.79;73.96;97634.56;4978820;28;19949;-74
2022/01/30 09:49:23;;;;;;;;;;;;;;;5.66;71.80;97614.19;4984283;28;19963;-74
2022/01/30 09:51:50;;;;;;;;;;;;;;;5.68;69.72;97594.03;4990469;28;20396;-74
2022/01/30 09:54:16;;;;;;;;;;;;;;;5.93;73.53;97638.34;4986627;28;19992;-74
2022/01/30 09:56:42;;;;;;;;;;;;;;;6.18;73.81;97641.84;4979628;28;19955;-74
2022/01/30 09:59:08;;;;;;;;;;;;;;;6.34;72.40;97620.19;4985041;28;20044;-74
2022/01/30 10:01:35;;;;;;;;;;;;;;;6.28;70.44;97609.47;4983572;28;19955;-74
2022/01/30 10:04:01;;;;;;;;;;;;;;;6.14;70.95;97620.50;4988763;28;19971;-74
2022/01/30 10:06:37;;;;;;;;;;;;;;;5.97;71.50;97634.47;4983737;28;19969;-74
2022/01/30 10:09:20;;;;;;;;;;;;;;;5.77;72.75;97631.28;4968417;28;19951;-74
2022/01/30 10:11:51;;;;;;;;;;;;;;;5.59;73.47;97647.03;4984404;28;19956;-74
2022/01/30 10:14:17;;;;;;;;;;;;;;;5.52;70.70;97622.59;4980693;28;20321;-74
2022/01/30 10:16:45;;;;;;;;;;;;;;;5.63;71.71;97630.94;4988509;28;19960;-74
2022/01/30 10:19:12;;;;;;;;;;;;;;;5.84;66.32;97570.63;4980008;28;19955;-74
2022/01/30 10:21:39;;;;;;;;;;;;;;;6.11;70.44;97628.66;4982829;28;19951;-73
2022/01/30 10:24:37;;;;;;;;;;;;;;;6.29;69.61;97628.50;4984160;28;19960;-74
2022/01/30 10:27:17;;;;;;;;;;;;;;;6.55;69.50;97620.56;4971454;28;19955;-74
2022/01/30 10:29:43;;;;;;;;;;;;;;;6.73;67.51;97594.28;4983561;28;19967;-74
2022/01/30 10:32:10;;;;;;;;;;;;;;;6.76;63.05;97549.66;4985604;28;19984;-74
2022/01/30 10:34:37;;;;;;;;;;;;;;;6.63;65.35;97580.63;4988092;28;20334;-74
2022/01/30 10:37:12;;;;;;;;;;;;;;;6.65;63.73;97565.63;4989820;28;20411;-74
2022/01/30 10:39:56;;;;;;;;;;;;;;;6.70;61.34;97532.88;4970474;28;19955;-74
2022/01/30 10:42:34;;;;;;;;;;;;;;;6.83;65.24;97584.50;4985378;28;19956;-74
2022/01/30 10:45:00;;;;;;;;;;;;;;;6.91;63.95;97555.81;4981636;28;19975;-74
2022/01/30 10:47:29;;;;;;;;;;;;;;;6.84;61.85;97538.38;4992547;28;19963;-74
2022/01/30 10:49:55;;;;;;;;;;;;;;;6.66;59.53;97509.94;4987455;28;19969;-74
2022/01/30 10:52:23;;;;;;;;;;;;;;;6.80;63.48;97563.16;4985514;28;19956;-75
2022/01/30 10:54:49;;;;;;;;;;;;;;;6.95;61.43;97538.03;4981756;28;20474;-74
2022/01/30 10:57:15;;;;;;;;;;;;;;;7.16;64.90;97571.41;4985896;28;19970;-74
2022/01/30 10:59:52;;;;;;;;;;;;;;;7.21;60.95;97523.94;4984839;28;20071;-74
2022/01/30 11:02:19;;;;;;;;;;;;;;;7.30;63.23;97552.41;4978080;28;20436;-75
2022/01/30 11:04:47;;;;;;;;;;;;;;;7.33;62.11;97546.06;4989720;28;19978;-74
2022/01/30 11:07:19;;;;;;;;;;;;;;;7.42;60.99;97521.53;4986676;28;19969;-74
2022/01/30 11:09:56;;;;;;;;;;;;;;;7.44;60.01;97519.56;4992836;28;19962;-74
2022/01/30 11:12:33;;;;;;;;;;;;;;;7.40;62.42;97552.22;4984832;28;19946;-74
2022/01/30 11:15:16;;;;;;;;;;;;;;;7.23;60.22;97524.56;4992753;28;20335;-74
2022/01/30 11:17:43;;;;;;;;;;;;;;;6.84;59.95;97544.41;4989338;28;19961;-74
2022/01/30 11:20:11;;;;;;;;;;;;;;;6.65;62.85;97581.28;4987673;28;19981;-74
2022/01/30 11:22:37;;;;;;;;;;;;;;;6.56;60.62;97553.59;4985185;28;19943;-75
2022/01/30 11:25:09;;;;;;;;;;;;;;;6.59;65.11;97608.00;4987197;28;20414;-74
2022/01/30 11:27:36;;;;;;;;;;;;;;;6.48;60.17;97538.78;4989418;28;19952;-74
2022/01/30 11:30:02;;;;;;;;;;;;;;;6.44;60.29;97547.91;4977604;28;19986;-74
2022/01/30 11:32:28;;;;;;;;;;;;;;;6.46;62.06;97559.78;4991299;28;19951;-74
2022/01/30 11:34:55;;;;;;;;;;;;;;;6.59;64.13;97587.94;4987201;28;19959;-74
2022/01/30 11:37:23;;;;;;;;;;;;;;;6.65;61.23;97542.97;4981648;28;19969;-74
2022/01/30 11:39:52;;;;;;;;;;;;;;;6.53;61.57;97538.28;4987256;28;19960;-74
2022/01/30 11:42:20;;;;;;;;;;;;;;;6.62;63.48;97579.00;4991663;28;19949;-74
2022/01/30 11:44:50;;;;;;;;;;;;;;;6.87;64.39;97579.78;4989630;28;20423;-74
2022/01/30 11:47:17;;;;;;;;;;;;;;;7.14;61.75;97549.03;4985165;28;19949;-74
2022/01/30 11:49:46;;;;;;;;;;;;;;;7.30;62.18;97567.25;4987380;28;19953;-74
2022/01/30 11:52:13;;;;;;;;;;;;;;;7.35;60.24;97525.81;4988111;28;19969;-74
2022/01/30 11:54:40;;;;;;;;;;;;;;;7.12;58.21;97497.06;4990064;28;20437;-74
2022/01/30 11:57:22;;;;;;;;;;;;;;;6.93;61.67;97539.16;4979570;28;19960;-74
2022/01/30 11:59:54;;;;;;;;;;;;;;;6.80;57.51;97495.38;4983148;28;19967;-74
2022/01/30 12:02:23;;;;;;;;;;;;;;;6.69;59.39;97522.63;4973844;28;20053;-74
2022/01/30 12:04:59;;;;;;;;;;;;;;;6.67;61.77;97546.22;4991471;28;19947;-74
2022/01/30 12:07:38;;;;;;;;;;;;;;;6.82;61.14;97535.13;4986987;28;19961;-74
2022/01/30 12:10:16;;;;;;;;;;;;;;;7.02;60.35;97512.91;4985885;28;19959;-74
2022/01/30 12:12:46;;;;;;;;;;;;;;;6.96;58.80;97494.50;4968339;28;19964;-74
2022/01/30 12:15:32;;;;;;;;;;;;;;;6.82;60.17;97499.44;4981296;28;19963;-74
2022/01/30 12:17:58;;;;;;;;;;;;;;;6.60;59.00;97482.72;4985539;28;19962;-74
2022/01/30 12:20:25;;;;;;;;;;;;;;;6.43;60.49;97507.19;4987110;28;20409;-74
2022/01/30 12:22:52;;;;;;;;;;;;;;;6.27;58.84;97487.19;4988909;28;19961;-74
2022/01/30 12:25:29;;;;;;;;;;;;;;;6.35;61.76;97508.00;4983195;28;19991;-74
2022/01/30 12:28:03;;;;;;;;;;;;;;;6.47;60.37;97493.66;4985913;28;19968;-74
2022/01/30 12:30:29;;;;;;;;;;;;;;;6.51;59.87;97491.56;4991491;28;19961;-74
2022/01/30 12:32:55;;;;;;;;;;;;;;;6.55;59.19;97478.97;4982216;28;19969;-74
2022/01/30 12:35:21;;;;;;;;;;;;;;;6.64;61.79;97504.06;4985336;28;20403;-74
2022/01/30 12:37:47;;;;;;;;;;;;;;;6.73;60.86;97499.63;4986717;28;19963;-74
2022/01/30 12:40:17;;;;;;;;;;;;;;;6.77;59.40;97478.28;4987447;28;20366;-74
2022/01/30 12:42:43;;;;;;;;;;;;;;;6.84;60.18;97478.41;4985330;28;19964;-74
2022/01/30 12:45:10;;;;;;;;;;;;;;;6.89;58.54;97458.69;4981697;28;19968;-74
2022/01/30 12:47:46;;;;;;;;;;;;;;;6.84;57.67;97437.50;4981441;28;19972;-74
2022/01/30 12:50:11;;;;;;;;;;;;;;;6.73;59.46;97456.13;4985592;28;19962;-74
2022/01/30 12:52:39;;;;;;;;;;;;;;;6.63;58.16;97430.25;4986774;28;19964;-74
2022/01/30 12:55:10;;;;;;;;;;;;;;;6.58;60.04;97465.63;4984676;28;19983;-74
2022/01/30 12:57:36;;;;;;;;;;;;;;;6.64;58.60;97437.09;4986223;28;19959;-74
2022/01/30 13:00:04;;;;;;;;;;;;;;;6.75;59.05;97445.53;4984971;28;19973;-74
2022/01/30 13:02:30;;;;;;;;;;;;;;;6.83;55.97;97402.00;4967782;28;19947;-74
2022/01/30 13:04:59;;;;;;;;;;;;;;;6.96;58.15;97429.31;4986064;28;20559;-74
2022/01/30 13:07:25;;;;;;;;;;;;;;;7.05;57.58;97423.88;4981324;28;19951;-74
2022/01/30 13:10:06;;;;;;;;;;;;;;;7.08;58.08;97430.56;4990867;28;20048;-74
2022/01/30 13:12:32;;;;;;;;;;;;;;;7.11;55.42;97393.69;4986231;28;19964;-74
2022/01/30 13:14:58;;;;;;;;;;;;;;;7.24;57.86;97427.03;4981608;28;19958;-74
2022/01/30 13:17:28;;;;;;;;;;;;;;;7.34;56.30;97404.16;4980441;28;20332;-74
2022/01/30 13:19:54;;;;;;;;;;;;;;;7.30;54.09;97374.97;4989780;28;20330;-74
2022/01/30 13:22:25;;;;;;;;;;;;;;;7.32;57.87;97412.13;4988849;28;19948;-74
2022/01/30 13:24:55;;;;;;;;;;;;;;;7.23;56.41;97409.78;4983243;28;19964;-74
2022/01/30 13:27:21;;;;;;;;;;;;;;;7.16;55.65;97403.59;4983846;28;19949;-74
2022/01/30 13:29:47;;;;;;;;;;;;;;;7.02;57.16;97410.38;4983370;28;19992;-74
2022/01/30 13:32:13;;;;;;;;;;;;;;;7.02;57.82;97436.47;4985897;28;19963;-74
2022/01/30 13:34:40;;;;;;;;;;;;;;;6.99;55.46;97403.72;4989143;28;20003;-74
2022/01/30 13:37:08;;;;;;;;;;;;;;;7.00;58.96;97431.41;4984889;28;19957;-74
2022/01/30 13:40:02;;;;;;;;;;;;;;;6.95;56.86;97401.59;4980256;28;19953;-74
2022/01/30 13:47:56;;;;;;;;;;;;;;;6.35;57.40;97406.41;4967836;28;19969;-75
2022/01/30 13:50:37;;;;;;;;;;;;;;;6.19;56.89;97407.25;4980835;28;19946;-74
2022/01/30 13:53:06;;;;;;;;;;;;;;;6.10;56.74;97403.84;4981560;28;20405;-74
2022/01/30 13:55:33;;;;;;;;;;;;;;;6.10;56.52;97393.44;4989639;28;20050;-74